Time;durP1;ratioP1;P1;durP2;ratioP2;P2;SDS_P1;SDS_P2;PMS_P1;PMS_P2;Temp;Humidity;BMP_temperature;BMP_pressure;BME280_temperature;BME280_humidity;BME280_pressure;Samples;Min_cycle;Max_cycle;Signal;HPM_P1;HPM_P2
2022/06/28 00:00:17;;;;;;;1999.90;999.90;;;14.70;99.90;;;;;;5011834;28;20633;-67
2022/06/28 00:02:43;;;;;;;1999.90;999.90;;;14.70;99.90;;;;;;5011789;28;20856;-67
2022/06/28 00:05:10;;;;;;;1999.90;999.90;;;14.60;99.90;;;;;;5011785;28;20490;-68
2022/06/28 00:07:36;;;;;;;1999.90;999.90;;;14.60;99.90;;;;;;5011438;28;21024;-67
2022/06/28 00:10:03;;;;;;;1999.90;999.90;;;14.60;99.90;;;;;;5011794;28;21006;-67
2022/06/28 00:12:28;;;;;;;1999.90;999.90;;;14.50;99.90;;;;;;5011649;28;20477;-67
2022/06/28 00:17:38;;;;;;;1999.90;999.90;;;14.40;99.90;;;;;;5011330;28;20213;-67
2022/06/28 00:20:05;;;;;;;1999.90;999.90;;;14.40;99.90;;;;;;5013580;28;20411;-67
2022/06/28 00:22:30;;;;;;;1999.90;999.90;;;14.40;99.90;;;;;;5015058;28;20411;-67
2022/06/28 00:24:56;;;;;;;1999.90;999.90;;;14.40;99.90;;;;;;5015205;28;20416;-68
2022/06/28 00:27:22;;;;;;;1999.90;999.90;;;14.30;99.90;;;;;;5014670;28;20191;-67
2022/06/28 00:29:48;;;;;;;1999.90;999.90;;;14.30;99.90;;;;;;5015111;28;20606;-68
2022/06/28 00:32:13;;;;;;;1999.90;999.90;;;14.30;99.90;;;;;;5015032;28;20199;-67
2022/06/28 00:34:39;;;;;;;1999.90;999.90;;;14.20;99.90;;;;;;5014912;28;20455;-68
2022/06/28 00:37:04;;;;;;;1999.90;999.90;;;14.20;99.90;;;;;;5014460;28;20192;-67
2022/06/28 00:39:30;;;;;;;1999.90;999.90;;;14.20;99.90;;;;;;5014912;28;20938;-67
2022/06/28 00:41:56;;;;;;;1999.90;999.90;;;14.10;99.90;;;;;;5015076;28;20661;-68
2022/06/28 00:44:22;;;;;;;1999.90;999.90;;;14.10;99.90;;;;;;5014703;28;20175;-68
2022/06/28 00:46:48;;;;;;;1999.90;999.90;;;14.10;99.90;;;;;;5014455;28;20207;-67
2022/06/28 00:49:14;;;;;;;1999.90;999.90;;;14.10;99.90;;;;;;5014729;28;20421;-67
2022/06/28 00:51:39;;;;;;;1999.90;999.90;;;14.10;99.90;;;;;;5014634;28;20861;-67
2022/06/28 00:54:05;;;;;;;1999.90;999.90;;;14.00;99.90;;;;;;5014633;28;20641;-67
2022/06/28 00:56:31;;;;;;;1999.90;999.90;;;13.90;99.90;;;;;;5014214;28;20340;-67
2022/06/28 00:58:57;;;;;;;1999.90;999.90;;;13.90;99.90;;;;;;5014495;28;20825;-67
2022/06/28 01:01:24;;;;;;;1999.90;999.90;;;13.80;99.90;;;;;;5014447;28;20405;-67
2022/06/28 01:03:50;;;;;;;1999.90;999.90;;;13.80;99.90;;;;;;5014557;28;20773;-68
2022/06/28 01:06:15;;;;;;;1999.90;999.90;;;13.80;99.90;;;;;;5013907;28;20443;-67
2022/06/28 01:08:42;;;;;;;1999.90;999.90;;;13.80;99.90;;;;;;5014365;28;20179;-67
2022/06/28 01:11:20;;;;;;;1999.90;999.90;;;13.80;99.90;;;;;;5014340;28;20165;-67
2022/06/28 01:14:13;;;;;;;1999.90;999.90;;;13.80;99.90;;;;;;5014345;28;20431;-67
2022/06/28 01:16:39;;;;;;;1999.90;999.90;;;13.70;99.90;;;;;;5008966;28;20970;-67
2022/06/28 01:19:06;;;;;;;1999.90;999.90;;;13.60;99.90;;;;;;5014180;28;20502;-67
2022/06/28 01:21:34;;;;;;;1999.90;999.90;;;13.60;99.90;;;;;;5014002;28;20173;-67
2022/06/28 01:24:00;;;;;;;1999.90;999.90;;;13.60;99.90;;;;;;5014047;28;20417;-67
2022/06/28 01:26:26;;;;;;;1999.90;999.90;;;13.60;99.90;;;;;;5013649;28;20440;-67
2022/06/28 01:28:53;;;;;;;1999.90;999.90;;;13.60;99.90;;;;;;5013902;28;20647;-67
2022/06/28 01:31:21;;;;;;;1999.90;999.90;;;13.60;99.90;;;;;;5013064;28;20778;-67
2022/06/28 01:33:47;;;;;;;1999.90;999.90;;;13.60;99.90;;;;;;5014099;28;20434;-67
2022/06/28 01:36:13;;;;;;;1999.90;999.90;;;13.60;99.90;;;;;;5013457;28;20475;-67
2022/06/28 01:38:40;;;;;;;1999.90;999.90;;;13.60;99.90;;;;;;5013774;28;20438;-67
2022/06/28 01:41:06;;;;;;;1999.90;999.90;;;13.70;99.90;;;;;;5013797;28;21015;-67
2022/06/28 01:43:32;;;;;;;1999.90;999.90;;;13.70;99.90;;;;;;5013784;28;21080;-67
2022/06/28 01:45:59;;;;;;;1999.90;999.90;;;13.70;99.90;;;;;;5013015;28;20459;-67
2022/06/28 01:48:26;;;;;;;1999.90;999.90;;;13.60;99.90;;;;;;5013677;28;20441;-67
2022/06/28 01:50:55;;;;;;;1999.90;999.90;;;13.60;99.90;;;;;;5013591;28;20408;-67
2022/06/28 01:53:21;;;;;;;1999.90;999.90;;;13.50;99.90;;;;;;5013404;28;20413;-67
2022/06/28 01:55:48;;;;;;;1999.90;999.90;;;13.50;99.90;;;;;;5013280;28;20448;-67
2022/06/28 01:58:14;;;;;;;1999.90;999.90;;;13.50;99.90;;;;;;5013180;28;20874;-67
2022/06/28 02:00:40;;;;;;;1999.90;999.90;;;13.40;99.90;;;;;;5013325;28;20410;-67
2022/06/28 02:03:05;;;;;;;1999.90;999.90;;;13.40;99.90;;;;;;5013341;28;20412;-67
2022/06/28 02:05:32;;;;;;;1999.90;999.90;;;13.40;99.90;;;;;;5013170;28;20172;-67
2022/06/28 02:07:58;;;;;;;1999.90;999.90;;;13.40;99.90;;;;;;5012889;28;20188;-67
2022/06/28 02:10:24;;;;;;;1999.90;999.90;;;13.40;99.90;;;;;;5013166;28;20460;-67
2022/06/28 02:12:50;;;;;;;1999.90;999.90;;;13.40;99.90;;;;;;5013165;28;20828;-67
2022/06/28 02:15:16;;;;;;;1999.90;999.90;;;13.30;99.90;;;;;;5012982;28;20461;-67
2022/06/28 02:17:43;;;;;;;1999.90;999.90;;;13.30;99.90;;;;;;5012597;28;20216;-67
2022/06/28 02:20:10;;;;;;;1999.90;999.90;;;13.30;99.90;;;;;;5013034;28;20203;-67
2022/06/28 02:22:36;;;;;;;1999.90;999.90;;;13.30;99.90;;;;;;5012945;28;20403;-67
2022/06/28 02:25:01;;;;;;;1999.90;999.90;;;13.30;99.90;;;;;;5012948;28;20448;-67
2022/06/28 02:27:27;;;;;;;1999.90;999.90;;;13.20;99.90;;;;;;5012527;28;20461;-67
2022/06/28 02:29:53;;;;;;;1999.90;999.90;;;13.20;99.90;;;;;;5012853;28;20241;-67
2022/06/28 02:32:19;;;;;;;1999.90;999.90;;;13.10;99.90;;;;;;5012889;28;20194;-67
2022/06/28 02:40:22;;;;;;;1999.90;999.90;;;13.00;99.90;;;;;;5012774;28;20435;-67
2022/06/28 02:42:58;;;;;;;1999.90;999.90;;;13.00;99.90;;;;;;5012557;28;20400;-67
2022/06/28 02:45:30;;;;;;;1999.90;999.90;;;13.00;99.90;;;;;;5012634;28;20901;-67
2022/06/28 02:47:56;;;;;;;1999.90;999.90;;;12.90;99.90;;;;;;5012688;28;20461;-67
2022/06/28 02:50:22;;;;;;;1999.90;999.90;;;13.00;99.90;;;;;;5012498;28;20406;-67
2022/06/28 02:52:49;;;;;;;1999.90;999.90;;;13.00;99.90;;;;;;5012565;28;20407;-67
2022/06/28 02:55:14;;;;;;;1999.90;999.90;;;12.90;99.90;;;;;;5012631;28;20515;-67
2022/06/28 02:57:41;;;;;;;1999.90;999.90;;;12.90;99.90;;;;;;5012110;28;20926;-67
2022/06/28 03:00:10;;;;;;;1999.90;999.90;;;12.80;99.90;;;;;;5012508;28;20171;-67
2022/06/28 03:02:38;;;;;;;1999.90;999.90;;;12.80;99.90;;;;;;5012317;28;20424;-67
2022/06/28 03:05:10;;;;;;;1999.90;999.90;;;12.80;99.90;;;;;;5012382;28;20411;-67
2022/06/28 03:07:36;;;;;;;1999.90;999.90;;;12.80;99.90;;;;;;5011997;28;20630;-67
2022/06/28 03:10:02;;;;;;;1999.90;999.90;;;12.70;99.90;;;;;;5012300;28;20771;-67
2022/06/28 03:12:28;;;;;;;1999.90;999.90;;;12.80;99.90;;;;;;5012271;28;20422;-67
2022/06/28 03:14:54;;;;;;;1999.90;999.90;;;12.70;99.90;;;;;;5012130;28;20446;-67
2022/06/28 03:17:20;;;;;;;1999.90;999.90;;;12.70;99.90;;;;;;5011782;28;20186;-67
2022/06/28 03:19:45;;;;;;;1999.90;999.90;;;12.60;99.90;;;;;;5012202;28;20312;-67
2022/06/28 03:22:11;;;;;;;1999.90;999.90;;;12.60;99.90;;;;;;5012193;28;20623;-67
2022/06/28 03:24:37;;;;;;;1999.90;999.90;;;12.60;99.90;;;;;;5012149;28;20402;-67
2022/06/28 03:27:03;;;;;;;1999.90;999.90;;;12.60;99.90;;;;;;5011891;28;20204;-67
2022/06/28 03:29:28;;;;;;;1999.90;999.90;;;12.60;99.90;;;;;;5012152;28;20174;-67
2022/06/28 03:31:54;;;;;;;1999.90;999.90;;;12.60;99.90;;;;;;5012059;28;20409;-67
2022/06/28 03:34:20;;;;;;;1999.90;999.90;;;12.50;99.90;;;;;;5012089;28;20260;-67
2022/06/28 03:36:46;;;;;;;1999.90;999.90;;;12.50;99.90;;;;;;5011487;28;20555;-67
2022/06/28 03:39:13;;;;;;;1999.90;999.90;;;12.60;99.90;;;;;;5012049;28;20169;-67
2022/06/28 03:41:38;;;;;;;1999.90;999.90;;;12.50;99.90;;;;;;5012121;28;20915;-67
2022/06/28 03:44:04;;;;;;;1999.90;999.90;;;12.50;99.90;;;;;;5011980;28;20468;-67
2022/06/28 03:46:30;;;;;;;1999.90;999.90;;;12.40;99.90;;;;;;5011426;28;20296;-67
2022/06/28 03:48:55;;;;;;;1999.90;999.90;;;12.50;99.90;;;;;;5012064;28;20194;-67
2022/06/28 03:51:21;;;;;;;1999.90;999.90;;;12.50;99.90;;;;;;5011926;28;20178;-67
2022/06/28 03:53:47;;;;;;;1999.90;999.90;;;12.50;99.90;;;;;;5012023;28;20211;-67
2022/06/28 03:56:13;;;;;;;1999.90;999.90;;;12.60;99.90;;;;;;5015313;28;20248;-67
2022/06/28 03:58:38;;;;;;;1999.90;999.90;;;12.60;99.90;;;;;;5015646;28;20173;-67
2022/06/28 04:01:04;;;;;;;1999.90;999.90;;;12.60;99.90;;;;;;5015577;28;20169;-67
2022/06/28 04:03:30;;;;;;;1999.90;999.90;;;12.70;99.90;;;;;;5015493;28;20166;-67
2022/06/28 04:05:56;;;;;;;1999.90;999.90;;;12.80;99.90;;;;;;5015265;28;20208;-67
2022/06/28 04:08:21;;;;;;;1999.90;999.90;;;12.90;99.90;;;;;;5015387;28;20427;-67
2022/06/28 04:10:48;;;;;;;1999.90;999.90;;;12.90;99.90;;;;;;5015572;28;20178;-66
2022/06/28 04:13:14;;;;;;;1999.90;999.90;;;13.00;99.90;;;;;;5015458;28;20173;-67
2022/06/28 04:15:39;;;;;;;1999.90;999.90;;;13.10;99.90;;;;;;5015156;28;20453;-67
2022/06/28 04:18:06;;;;;;;1999.90;999.90;;;13.20;99.90;;;;;;5015025;28;20189;-67
2022/06/28 04:20:36;;;;;;;1999.90;999.90;;;13.30;99.90;;;;;;5015243;28;20261;-67
2022/06/28 04:23:01;;;;;;;1999.90;999.90;;;13.40;99.90;;;;;;5015257;28;20416;-67
2022/06/28 04:25:27;;;;;;;1999.90;999.90;;;13.40;99.90;;;;;;5015253;28;20423;-67
2022/06/28 04:27:56;;;;;;;1999.90;999.90;;;13.40;99.90;;;;;;5014842;28;20271;-67
2022/06/28 04:30:24;;;;;;;1999.90;999.90;;;13.40;99.90;;;;;;5015039;28;20178;-67
2022/06/28 04:32:50;;;;;;;1999.90;999.90;;;13.40;99.90;;;;;;5015244;28;20895;-67
2022/06/28 04:35:16;;;;;;;1999.90;999.90;;;13.40;99.90;;;;;;5014927;28;20459;-67
2022/06/28 04:37:41;;;;;;;1999.90;999.90;;;13.50;99.90;;;;;;5014575;28;20649;-67
2022/06/28 04:40:07;;;;;;;1999.90;999.90;;;13.60;99.90;;;;;;5015199;28;20216;-67
2022/06/28 04:42:35;;;;;;;1999.90;999.90;;;13.60;99.90;;;;;;5014849;28;20169;-67
2022/06/28 04:45:00;;;;;;;1999.90;999.90;;;13.70;99.90;;;;;;5014784;28;20175;-67
2022/06/28 04:47:26;;;;;;;1999.90;999.90;;;13.70;99.90;;;;;;5014341;28;20473;-67
2022/06/28 04:49:52;;;;;;;1999.90;999.90;;;13.90;99.90;;;;;;5014743;28;20184;-67
2022/06/28 04:52:17;;;;;;;1999.90;999.90;;;13.90;99.90;;;;;;5014775;28;20194;-67
2022/06/28 04:54:43;;;;;;;1999.90;999.90;;;14.00;99.90;;;;;;5014660;28;20629;-67
2022/06/28 04:57:08;;;;;;;1999.90;999.90;;;14.10;99.90;;;;;;5014302;28;20559;-67
2022/06/28 04:59:34;;;;;;;1999.90;999.90;;;14.20;99.90;;;;;;5014508;28;20176;-67
2022/06/28 05:01:59;;;;;;;1999.90;999.90;;;14.20;99.90;;;;;;5014469;28;20602;-67
2022/06/28 05:04:25;;;;;;;1999.90;999.90;;;14.30;99.90;;;;;;5014545;28;20207;-67
2022/06/28 05:06:51;;;;;;;1999.90;999.90;;;14.40;99.90;;;;;;5012730;28;20661;-67
2022/06/28 05:09:16;;;;;;;1999.90;999.90;;;14.50;99.90;;;;;;5014379;28;20167;-67
2022/06/28 05:11:42;;;;;;;1999.90;999.90;;;14.50;99.90;;;;;;5014288;28;20168;-67
2022/06/28 05:14:07;;;;;;;1999.90;999.90;;;14.50;99.90;;;;;;5014180;28;20181;-67
2022/06/28 05:16:33;;;;;;;1999.90;999.90;;;14.50;99.90;;;;;;5013856;28;20555;-67
2022/06/28 05:18:58;;;;;;;1999.90;999.90;;;14.50;99.90;;;;;;5014171;28;20179;-68
2022/06/28 05:21:24;;;;;;;1999.90;999.90;;;14.60;99.90;;;;;;5014339;28;20559;-68
2022/06/28 05:23:50;;;;;;;1999.90;999.90;;;14.70;99.90;;;;;;5014097;28;20180;-67
2022/06/28 05:26:15;;;;;;;1999.90;999.90;;;14.70;99.90;;;;;;5013845;28;20207;-69
2022/06/28 05:28:41;;;;;;;1999.90;999.90;;;14.80;99.90;;;;;;5013994;28;20767;-68
2022/06/28 05:31:07;;;;;;;1999.90;999.90;;;14.90;99.90;;;;;;5013975;28;20565;-69
2022/06/28 05:33:32;;;;;;;1999.90;999.90;;;15.00;99.90;;;;;;5013950;28;20302;-68
2022/06/28 05:35:58;;;;;;;1999.90;999.90;;;15.00;99.90;;;;;;5013551;28;20555;-68
2022/06/28 05:38:23;;;;;;;1999.90;999.90;;;15.10;99.90;;;;;;5013850;28;20203;-69
2022/06/28 05:40:49;;;;;;;1999.90;999.90;;;15.20;99.90;;;;;;5013778;28;20167;-68
2022/06/28 05:43:14;;;;;;;1999.90;999.90;;;15.30;99.90;;;;;;5013711;28;20166;-68
2022/06/28 05:45:40;;;;;;;1999.90;999.90;;;15.40;99.90;;;;;;5013684;28;20183;-66
2022/06/28 05:48:06;;;;;;;1999.90;999.90;;;15.50;99.90;;;;;;5013322;28;20213;-69
2022/06/28 05:50:31;;;;;;;1999.90;999.90;;;15.60;99.90;;;;;;5013723;28;20229;-68
2022/06/28 05:52:57;;;;;;;1999.90;999.90;;;15.70;99.90;;;;;;5013523;28;20547;-69
2022/06/28 05:55:23;;;;;;;1999.90;999.90;;;15.70;99.90;;;;;;5013574;28;20193;-68
2022/06/28 05:57:48;;;;;;;1999.90;999.90;;;15.80;99.90;;;;;;5013036;28;20232;-67
2022/06/28 06:00:15;;;;;;;1999.90;999.90;;;15.80;99.90;;;;;;5013547;28;20169;-69
2022/06/28 06:02:40;;;;;;;1999.90;999.90;;;15.90;99.90;;;;;;5013819;28;20169;-68
2022/06/28 06:05:06;;;;;;;1999.90;999.90;;;16.00;99.90;;;;;;5013577;28;20466;-69
2022/06/28 06:07:32;;;;;;;1999.90;999.90;;;16.00;99.90;;;;;;5013113;28;20241;-69
2022/06/28 06:09:58;;;;;;;1999.90;999.90;;;16.20;99.90;;;;;;5013355;28;20416;-69
2022/06/28 06:12:24;;;;;;;1999.90;999.90;;;16.30;99.90;;;;;;5013358;28;20176;-68
2022/06/28 06:14:49;;;;;;;1999.90;999.90;;;16.40;99.90;;;;;;5013111;28;20570;-68
2022/06/28 06:17:15;;;;;;;1999.90;999.90;;;16.40;99.90;;;;;;5012456;28;20649;-68
2022/06/28 06:19:41;;;;;;;1999.90;999.90;;;16.50;99.90;;;;;;5013139;28;20175;-69
2022/06/28 06:22:06;;;;;;;1999.90;999.90;;;16.60;99.90;;;;;;5013103;28;20177;-69
2022/06/28 06:24:32;;;;;;;1999.90;999.90;;;16.70;99.90;;;;;;5013342;28;20631;-69
2022/06/28 06:26:58;;;;;;;1999.90;999.90;;;16.70;99.90;;;;;;5012711;28;20202;-68
2022/06/28 06:29:24;;;;;;;1999.90;999.90;;;16.90;99.90;;;;;;5013060;28;20172;-68
2022/06/28 06:31:49;;;;;;;1999.90;999.90;;;17.00;99.90;;;;;;5012847;28;20225;-68
2022/06/28 06:34:15;;;;;;;1999.90;999.90;;;17.00;99.90;;;;;;5013062;28;20412;-69
2022/06/28 06:36:41;;;;;;;1999.90;999.90;;;17.10;99.90;;;;;;5011222;28;20302;-69
2022/06/28 06:39:08;;;;;;;1999.90;999.90;;;17.10;99.90;;;;;;5011645;28;20173;-69
2022/06/28 06:41:34;;;;;;;1999.90;999.90;;;17.20;99.90;;;;;;5012857;28;20411;-69
2022/06/28 06:43:59;;;;;;;1999.90;999.90;;;17.30;99.90;;;;;;5012637;28;20474;-69
2022/06/28 06:46:25;;;;;;;1999.90;999.90;;;17.40;99.90;;;;;;5012305;28;20538;-69
2022/06/28 06:48:51;;;;;;;1999.90;999.90;;;17.40;99.90;;;;;;5012780;28;20610;-69
2022/06/28 06:51:17;;;;;;;1999.90;999.90;;;17.50;99.90;;;;;;5012708;28;20173;-69
2022/06/28 06:53:43;;;;;;;1999.90;999.90;;;17.60;99.90;;;;;;5012866;28;20408;-69
2022/06/28 06:56:09;;;;;;;1999.90;999.90;;;17.60;99.90;;;;;;5012637;28;20552;-69
2022/06/28 06:58:34;;;;;;;1999.90;999.90;;;17.80;99.90;;;;;;5012691;28;20185;-69
2022/06/28 07:01:00;;;;;;;1999.90;999.90;;;17.80;99.90;;;;;;5012854;28;20194;-67
2022/06/28 07:03:26;;;;;;;1999.90;999.90;;;17.80;99.90;;;;;;5013219;28;20215;-69
2022/06/28 07:05:52;;;;;;;1999.90;999.90;;;17.90;99.90;;;;;;5012540;28;20174;-69
2022/06/28 07:08:17;;;;;;;1999.90;999.90;;;18.00;99.90;;;;;;5012574;28;20186;-69
2022/06/28 07:10:43;;;;;;;1999.90;999.90;;;18.10;99.90;;;;;;5012586;28;20420;-68
2022/06/28 07:13:08;;;;;;;1999.90;999.90;;;18.10;99.90;;;;;;5012507;28;20175;-68
2022/06/28 07:15:34;;;;;;;1999.90;999.90;;;18.10;99.90;;;;;;5012898;28;20235;-69
2022/06/28 07:18:00;;;;;;;1999.90;999.90;;;18.10;99.90;;;;;;5012124;28;20239;-69
2022/06/28 07:20:25;;;;;;;1999.90;999.90;;;18.10;99.90;;;;;;5012348;28;20181;-69
2022/06/28 07:22:51;;;;;;;1999.90;999.90;;;18.20;99.90;;;;;;5012262;28;20168;-69
2022/06/28 07:25:17;;;;;;;1999.90;999.90;;;18.20;99.90;;;;;;5012554;28;20181;-67
2022/06/28 07:27:42;;;;;;;1999.90;999.90;;;18.30;99.90;;;;;;5011931;28;20198;-69
2022/06/28 07:30:08;;;;;;;1999.90;999.90;;;18.40;99.90;;;;;;5014684;28;20642;-69
2022/06/28 07:32:34;;;;;;;1999.90;999.90;;;18.50;99.90;;;;;;5016713;28;20170;-69
2022/06/28 07:35:00;;;;;;;1999.90;999.90;;;18.50;99.90;;;;;;5016414;28;20462;-66
2022/06/28 07:37:25;;;;;;;1999.90;999.90;;;18.50;99.90;;;;;;5015771;28;20199;-66
2022/06/28 07:39:51;;;;;;;1999.90;999.90;;;18.60;99.90;;;;;;5016048;28;20203;-69
2022/06/28 07:42:17;;;;;;;1999.90;999.90;;;18.60;99.90;;;;;;5004523;28;20308;-66
2022/06/28 07:44:43;;;;;;;1999.90;999.90;;;18.70;99.90;;;;;;4996391;28;20170;-66
2022/06/28 07:47:08;;;;;;;1999.90;999.90;;;18.80;99.90;;;;;;4995703;28;20218;-67
2022/06/28 07:55:04;;;;;;;1999.90;999.90;;;19.00;99.90;;;;;;4996130;28;20487;-67
2022/06/28 07:57:31;;;;;;;1999.90;999.90;;;19.20;99.90;;;;;;4995752;28;20430;-66
2022/06/28 07:59:56;;;;;;;1999.90;999.90;;;19.20;99.90;;;;;;4996102;28;20545;-66
2022/06/28 08:02:23;;;;;;;1999.90;999.90;;;19.30;99.90;;;;;;4996104;28;20503;-68
2022/06/28 08:04:49;;;;;;;1999.90;999.90;;;19.30;99.90;;;;;;5010600;28;20188;-69
2022/06/28 08:07:15;;;;;;;1999.90;999.90;;;19.30;99.90;;;;;;5014790;28;20434;-69
2022/06/28 08:09:41;;;;;;;1999.90;999.90;;;19.40;99.90;;;;;;5015115;28;20902;-69
2022/06/28 08:12:07;;;;;;;1999.90;999.90;;;19.50;99.90;;;;;;5015183;28;20179;-69
2022/06/28 08:14:33;;;;;;;1999.90;999.90;;;19.60;99.90;;;;;;5015072;28;20509;-67
2022/06/28 08:16:59;;;;;;;1999.90;999.90;;;19.60;99.90;;;;;;5014700;28;20429;-67
2022/06/28 08:19:24;;;;;;;1999.90;999.90;;;19.60;99.90;;;;;;5014799;28;20414;-67
2022/06/28 08:21:50;;;;;;;1999.90;999.90;;;19.70;99.90;;;;;;5014876;28;20955;-69
2022/06/28 08:24:17;;;;;;;1999.90;999.90;;;19.80;99.90;;;;;;5015068;28;20169;-69
2022/06/28 08:26:43;;;;;;;1999.90;999.90;;;19.90;99.90;;;;;;5014556;28;20197;-68
2022/06/28 08:29:10;;;;;;;1999.90;999.90;;;20.00;99.90;;;;;;5011728;28;20434;-68
2022/06/28 08:31:36;;;;;;;1999.90;999.90;;;20.10;99.90;;;;;;5014415;28;20419;-68
2022/06/28 08:34:01;;;;;;;1999.90;999.90;;;20.10;99.90;;;;;;5014671;28;20472;-68
2022/06/28 08:36:27;;;;;;;1999.90;999.90;;;20.00;99.90;;;;;;5013308;28;20243;-68
2022/06/28 08:38:52;;;;;;;1999.90;999.90;;;20.10;99.90;;;;;;5014369;28;20171;-68
2022/06/28 08:41:19;;;;;;;1999.90;999.90;;;20.30;99.90;;;;;;5013741;28;20688;-68
2022/06/28 08:43:45;;;;;;;1999.90;999.90;;;20.50;99.90;;;;;;5013406;28;20180;-67
2022/06/28 08:46:11;;;;;;;1999.90;999.90;;;20.60;99.90;;;;;;4980051;28;20550;-68
2022/06/28 08:48:49;;;;;;;1999.90;999.90;;;20.60;99.90;;;;;;5012854;28;20174;-68
2022/06/28 08:51:16;;;;;;;1999.90;999.90;;;20.70;99.90;;;;;;5013749;28;20635;-68
2022/06/28 08:53:42;;;;;;;1999.90;999.90;;;20.80;99.90;;;;;;5014084;28;20971;-69
2022/06/28 08:56:09;;;;;;;1999.90;999.90;;;20.90;99.90;;;;;;5013578;28;20438;-68
2022/06/28 08:58:38;;;;;;;1999.90;999.90;;;21.00;99.90;;;;;;5013362;28;20395;-67
2022/06/28 09:01:03;;;;;;;1999.90;999.90;;;21.10;99.90;;;;;;5013923;28;20499;-68
2022/06/28 09:03:31;;;;;;;1999.90;999.90;;;21.20;99.90;;;;;;5013865;28;20844;-67
2022/06/28 09:05:56;;;;;;;1999.90;999.90;;;21.30;99.90;;;;;;5013023;28;20173;-69
2022/06/28 09:08:22;;;;;;;1999.90;999.90;;;21.50;99.90;;;;;;5014180;28;20393;-69
2022/06/28 09:10:48;;;;;;;1999.90;999.90;;;21.50;99.90;;;;;;5013646;28;20260;-69
2022/06/28 09:13:15;;;;;;;1999.90;999.90;;;21.60;99.90;;;;;;5013235;28;20174;-68
2022/06/28 09:15:56;;;;;;;1999.90;999.90;;;21.80;99.90;;;;;;5013547;28;20198;-69
2022/06/28 09:18:34;;;;;;;1999.90;999.90;;;21.70;99.90;;;;;;5013494;28;20414;-69
2022/06/28 09:21:00;;;;;;;1999.90;999.90;;;21.70;99.90;;;;;;5010021;28;20424;-68
2022/06/28 09:23:35;;;;;;;1999.90;999.90;;;21.90;99.90;;;;;;5011092;28;20431;-68
2022/06/28 09:26:15;;;;;;;1999.90;999.90;;;22.00;99.90;;;;;;5009215;28;20425;-69
2022/06/28 09:28:49;;;;;;;1999.90;999.90;;;21.90;99.90;;;;;;5009308;28;20468;-69
2022/06/28 09:31:18;;;;;;;1999.90;999.90;;;22.10;99.90;;;;;;5009754;28;20401;-69
2022/06/28 09:33:47;;;;;;;1999.90;999.90;;;22.20;99.90;;;;;;5008921;28;20424;-69
2022/06/28 09:36:15;;;;;;;1999.90;999.90;;;22.20;99.90;;;;;;5008881;28;20555;-69
2022/06/28 09:38:41;;;;;;;1999.90;999.90;;;22.40;99.90;;;;;;5009115;28;20420;-69
2022/06/28 09:41:26;;;;;;;1999.90;999.90;;;22.50;99.90;;;;;;5008781;28;20419;-69
2022/06/28 09:44:00;;;;;;;1999.90;999.90;;;22.70;99.90;;;;;;5008238;28;20429;-69
2022/06/28 09:46:28;;;;;;;1999.90;999.90;;;22.80;99.90;;;;;;5008348;28;20468;-67
2022/06/28 09:49:06;;;;;;;1999.90;999.90;;;22.70;99.90;;;;;;5009071;28;20422;-70
2022/06/28 09:51:33;;;;;;;1999.90;999.90;;;22.80;99.90;;;;;;5008750;28;20401;-69
2022/06/28 09:54:05;;;;;;;1999.90;999.90;;;22.80;99.90;;;;;;5008565;28;20510;-69
2022/06/28 09:56:41;;;;;;;1999.90;999.90;;;22.80;99.90;;;;;;5008088;28;20983;-68
2022/06/28 09:59:09;;;;;;;1999.90;999.90;;;23.00;99.90;;;;;;5008481;28;20489;-68
2022/06/28 10:01:35;;;;;;;1999.90;999.90;;;23.20;99.90;;;;;;5008465;28;20400;-69
2022/06/28 10:04:01;;;;;;;1999.90;999.90;;;23.30;99.90;;;;;;5008269;28;20452;-69
2022/06/28 10:06:27;;;;;;;1999.90;999.90;;;23.40;99.90;;;;;;5008320;28;20200;-67
2022/06/28 10:08:53;;;;;;;1999.90;999.90;;;23.40;99.90;;;;;;5008387;28;20475;-68
2022/06/28 10:11:19;;;;;;;1999.90;999.90;;;23.50;99.90;;;;;;5007897;28;20855;-67
2022/06/28 10:16:38;;;;;;;1999.90;999.90;;;23.80;99.90;;;;;;5007954;28;20448;-70
2022/06/28 10:19:05;;;;;;;1999.90;999.90;;;23.80;99.90;;;;;;5007878;28;20402;-69
2022/06/28 10:21:52;;;;;;;1999.90;999.90;;;23.90;99.90;;;;;;5007520;28;20397;-70
2022/06/28 10:24:19;;;;;;;1999.90;999.90;;;24.00;99.90;;;;;;5007818;28;20395;-69
2022/06/28 10:27:10;;;;;;;1999.90;999.90;;;24.10;99.90;;;;;;5008004;28;20450;-68
2022/06/28 10:30:00;;;;;;;1999.90;999.90;;;24.30;97.10;;;;;;5007999;28;20386;-69
2022/06/28 10:32:40;;;;;;;1999.90;999.90;;;24.40;94.10;;;;;;5008092;28;22059;-67
2022/06/28 10:35:07;;;;;;;1999.90;999.90;;;24.50;90.80;;;;;;5007401;28;20529;-69
2022/06/28 10:37:33;;;;;;;1999.90;999.90;;;24.60;92.60;;;;;;5007424;28;20438;-68
2022/06/28 10:40:23;;;;;;;1999.90;999.90;;;24.80;91.40;;;;;;5010875;28;20430;-68
2022/06/28 10:42:50;;;;;;;1999.90;999.90;;;24.80;72.40;;;;;;5011542;28;20602;-68
2022/06/28 10:45:16;;;;;;;1999.90;999.90;;;24.80;61.40;;;;;;5011992;28;20439;-68
2022/06/28 10:48:06;;;;;;;1999.90;999.90;;;24.80;65.40;;;;;;5012074;28;20510;-68
2022/06/28 10:51:02;;;;;;;1999.90;999.90;;;24.80;55.20;;;;;;5012320;28;20864;-69
2022/06/28 10:53:31;;;;;;;1999.90;999.90;;;24.80;56.70;;;;;;5012529;28;20409;-67
2022/06/28 10:56:12;;;;;;;1999.90;999.90;;;25.00;63.90;;;;;;5011774;28;20479;-68
2022/06/28 10:59:06;;;;;;;1999.90;999.90;;;25.30;70.10;;;;;;5012433;28;20412;-68
2022/06/28 11:01:41;;;;;;;1999.90;999.90;;;25.40;71.70;;;;;;5009330;28;20448;-68
2022/06/28 11:04:11;;;;;;;1999.90;999.90;;;25.50;61.20;;;;;;5012373;28;20393;-68
2022/06/28 11:06:41;;;;;;;1999.90;999.90;;;25.60;67.20;;;;;;5011996;28;20882;-68
2022/06/28 11:09:25;;;;;;;1999.90;999.90;;;25.60;69.90;;;;;;5012760;28;20430;-68
2022/06/28 11:12:06;;;;;;;1999.90;999.90;;;25.80;80.30;;;;;;5012290;28;20448;-69
2022/06/28 11:14:35;;;;;;;1999.90;999.90;;;25.90;78.20;;;;;;5012263;28;20394;-68
2022/06/28 11:17:18;;;;;;;1999.90;999.90;;;25.90;64.90;;;;;;5012113;28;20492;-68
2022/06/28 11:19:53;;;;;;;1999.90;999.90;;;25.70;58.70;;;;;;5012413;28;20457;-68
2022/06/28 11:22:24;;;;;;;1999.90;999.90;;;25.60;61.80;;;;;;5012285;28;20382;-68
2022/06/28 11:24:51;;;;;;;1999.90;999.90;;;25.80;74.10;;;;;;5012316;28;20462;-68
2022/06/28 11:27:20;;;;;;;1999.90;999.90;;;26.20;72.70;;;;;;5010592;28;20435;-68
2022/06/28 11:29:47;;;;;;;1999.90;999.90;;;26.50;70.80;;;;;;5012354;28;20426;-68
2022/06/28 11:32:34;;;;;;;1999.90;999.90;;;26.70;71.10;;;;;;5012167;28;20912;-68
2022/06/28 11:35:04;;;;;;;1999.90;999.90;;;27.00;70.70;;;;;;5012151;28;20877;-68
2022/06/28 11:37:31;;;;;;;1999.90;999.90;;;27.10;68.70;;;;;;5011512;28;20428;-69
2022/06/28 11:40:01;;;;;;;1999.90;999.90;;;27.10;62.70;;;;;;5012051;28;20379;-68
2022/06/28 11:42:28;;;;;;;1999.90;999.90;;;27.20;64.20;;;;;;5012269;28;20404;-68
2022/06/28 11:44:53;;;;;;;1999.90;999.90;;;27.30;61.20;;;;;;5012155;28;20491;-68
2022/06/28 11:47:20;;;;;;;1999.90;999.90;;;27.40;59.10;;;;;;5011560;28;21015;-68
2022/06/28 11:49:51;;;;;;;1999.90;999.90;;;27.40;59.70;;;;;;5012001;28;20751;-68
2022/06/28 11:52:17;;;;;;;1999.90;999.90;;;27.40;56.50;;;;;;5011916;28;20419;-68
2022/06/28 11:54:45;;;;;;;1999.90;999.90;;;27.50;61.70;;;;;;5012024;28;20416;-68
2022/06/28 11:57:17;;;;;;;1999.90;999.90;;;27.60;54.80;;;;;;5011591;28;20478;-68
2022/06/28 11:59:57;;;;;;;1999.90;999.90;;;27.60;52.80;;;;;;5011978;28;20431;-68
2022/06/28 12:02:51;;;;;;;1999.90;999.90;;;27.70;59.40;;;;;;5011834;28;20414;-68
2022/06/28 12:05:49;;;;;;;1999.90;999.90;;;27.90;51.40;;;;;;5009576;28;20436;-68
2022/06/28 12:08:15;;;;;;;1999.90;999.90;;;28.10;48.10;;;;;;4968197;28;20429;-68
2022/06/28 12:10:41;;;;;;;1999.90;999.90;;;28.40;49.10;;;;;;5011738;28;20405;-68
2022/06/28 12:13:12;;;;;;;1999.90;999.90;;;29.00;49.30;;;;;;5011723;28;20241;-69
2022/06/28 12:15:38;;;;;;;1999.90;999.90;;;29.70;46.70;;;;;;5013015;28;20200;-68
2022/06/28 12:18:06;;;;;;;1999.90;999.90;;;30.70;40.10;;;;;;5015104;28;20528;-68